Time;durP1;ratioP1;P1;durP2;ratioP2;P2;SDS_P1;SDS_P2;PMS_P1;PMS_P2;Temp;Humidity;BMP_temperature;BMP_pressure;BME280_temperature;BME280_humidity;BME280_pressure;Samples;Min_cycle;Max_cycle;Signal;HPM_P1;HPM_P2
2023/06/15 00:01:59;;;;;;;10.20;2.10;;;;;;;12.98;85.53;98912.33;104913;1270;61283;-22
2023/06/15 00:04:27;;;;;;;3.20;2.20;;;;;;;13.43;84.13;98911.27;104876;1266;61114;-22
2023/06/15 00:06:55;;;;;;;5.30;2.30;;;;;;;13.47;83.28;98911.00;104855;1265;70666;-22
2023/06/15 00:09:22;;;;;;;4.10;2.70;;;;;;;13.31;83.46;98908.45;105168;1263;74296;-22
2023/06/15 00:18:19;;;;;;;2.50;1.70;;;;;;;12.67;84.97;98907.88;102551;1291;601677;-22
2023/06/15 00:20:47;;;;;;;4.40;2.20;;;;;;;13.02;85.84;98906.02;104832;1266;61186;-22
2023/06/15 00:23:17;;;;;;;2.50;2.20;;;;;;;13.55;83.93;98898.08;104870;1266;61143;-22
2023/06/15 00:25:45;;;;;;;6.80;2.20;;;;;;;13.61;82.45;98894.05;104878;1279;70936;-23
2023/06/15 00:28:12;;;;;;;6.10;2.40;;;;;;;13.42;82.12;98895.24;104730;1275;73357;-22
2023/06/15 00:30:40;;;;;;;4.00;2.60;;;;;;;13.14;82.29;98888.65;104773;1272;72694;-23
2023/06/15 00:33:08;;;;;;;3.20;2.90;;;;;;;12.88;83.36;98884.61;103007;1272;2556171;-23
2023/06/15 00:35:35;;;;;;;1.80;1.60;;;;;;;12.68;84.96;98889.48;104963;1268;61216;-23
2023/06/15 00:38:03;;;;;;;5.30;1.70;;;;;;;13.08;85.62;98886.83;105195;1267;71347;-23
2023/06/15 00:40:31;;;;;;;4.00;2.40;;;;;;;13.56;83.88;98888.23;104828;1270;74454;-23
2023/06/15 00:42:59;;;;;;;3.30;2.40;;;;;;;13.60;82.97;98892.27;104847;1269;71520;-23
2023/06/15 00:45:29;;;;;;;3.30;2.10;;;;;;;13.41;82.59;98893.11;104902;1271;61749;-23
2023/06/15 00:55:36;;;;;;;5.00;1.80;;;;;;;12.58;84.30;98899.05;102663;1293;600210;-22
2023/06/15 00:58:05;;;;;;;2.90;2.10;;;;;;;13.16;84.47;98897.36;104824;1269;61196;-22
2023/06/15 01:00:36;;;;;;;3.90;2.30;;;;;;;13.70;82.68;98894.58;104855;1267;61190;-22
2023/06/15 01:10:42;;;;;;;4.90;3.20;;;;;;;12.89;83.23;98885.21;102660;1294;600198;-22
2023/06/15 01:19:57;;;;;;;5.70;3.10;;;;;;;13.55;82.11;98882.73;102650;1293;599393;-22
2023/06/15 01:22:49;;;;;;;;;;;;;;;13.33;82.05;98887.06;104871;1267;61148;-22
2023/06/15 01:25:33;;;;;;;5.00;3.20;;;;;;;13.03;82.93;98890.19;104723;1267;61065;-22
2023/06/15 01:28:02;;;;;;;3.70;3.40;;;;;;;12.75;84.15;98894.73;104851;1272;72199;-22
2023/06/15 01:30:45;;;;;;;3.70;2.00;;;;;;;12.56;84.89;98894.26;104826;1267;73161;-22
2023/06/15 01:33:14;;;;;;;3.50;2.00;;;;;;;13.04;84.67;98891.99;103095;1264;2495862;-22
2023/06/15 01:35:42;;;;;;;3.50;3.00;;;;;;;13.48;82.36;98886.52;104886;1270;61196;-22
2023/06/15 01:38:10;;;;;;;4.40;3.40;;;;;;;13.43;81.74;98890.11;105031;1264;61071;-22
2023/06/15 01:40:40;;;;;;;5.20;3.30;;;;;;;13.20;81.75;98888.12;105024;1264;72259;-22
2023/06/15 01:43:13;;;;;;;5.00;3.50;;;;;;;12.90;82.62;98886.20;105004;1264;74101;-23
2023/06/15 01:53:23;;;;;;;3.80;3.00;;;;;;;13.53;83.37;98885.01;102647;1292;600671;-22
2023/06/15 01:55:51;;;;;;;4.30;2.80;;;;;;;13.60;82.29;98883.02;104894;1267;61129;-22
2023/06/15 01:58:18;;;;;;;3.80;3.50;;;;;;;13.41;82.10;98877.56;105204;1260;61440;-24
2023/06/15 02:05:39;;;;;;;4.40;3.80;;;;;;;12.64;82.82;98877.66;105327;1263;75585;-22
2023/06/15 02:08:08;;;;;;;2.90;2.10;;;;;;;12.42;84.00;98877.26;103302;1267;2558928;-22
2023/06/15 02:10:35;;;;;;;2.90;2.40;;;;;;;12.86;83.96;98877.75;105128;1264;61154;-22
2023/06/15 02:13:05;;;;;;;4.60;2.90;;;;;;;13.34;82.27;98875.46;105264;1262;61170;-22
2023/06/15 02:15:36;;;;;;;3.00;2.70;;;;;;;13.35;81.41;98874.11;105212;1258;71013;-22
2023/06/15 02:18:11;;;;;;;9.70;3.10;;;;;;;13.15;81.40;98875.00;105465;1263;74324;-22
2023/06/15 02:20:42;;;;;;;4.90;3.40;;;;;;;12.86;82.15;98872.63;105115;1265;72670;-22
2023/06/15 02:23:10;;;;;;;4.70;3.30;;;;;;;12.57;82.52;98879.01;105163;1263;61068;-22
2023/06/15 02:25:38;;;;;;;5.70;1.80;;;;;;;12.35;83.75;98877.66;105239;1264;61194;-22
2023/06/15 02:28:06;;;;;;;5.50;2.30;;;;;;;12.82;83.72;98877.04;105384;1257;73005;-22
2023/06/15 02:30:36;;;;;;;4.80;2.90;;;;;;;13.38;82.22;98869.73;105295;1263;73163;-22
2023/06/15 02:33:05;;;;;;;4.10;3.20;;;;;;;13.40;81.60;98869.84;105399;1257;71457;-22
2023/06/15 02:35:33;;;;;;;4.10;3.40;;;;;;;13.21;82.22;98868.36;105630;1257;61052;-22
2023/06/15 02:38:00;;;;;;;4.90;3.50;;;;;;;12.95;83.06;98867.64;105648;1259;61106;-22
2023/06/15 02:40:28;;;;;;;5.20;4.30;;;;;;;12.73;83.62;98868.67;105820;1257;71803;-22
2023/06/15 02:42:56;;;;;;;3.10;1.90;;;;;;;12.62;83.97;98871.91;105646;1255;74263;-22
2023/06/15 02:45:24;;;;;;;3.60;2.20;;;;;;;13.11;83.57;98869.96;105652;1254;72685;-23
2023/06/15 02:47:51;;;;;;;4.70;2.70;;;;;;;13.67;81.46;98866.98;105668;1261;61288;-22
2023/06/15 02:50:19;;;;;;;4.10;2.60;;;;;;;13.72;80.52;98864.38;105833;1257;61157;-22
2023/06/15 03:01:04;;;;;;;3.30;3.00;;;;;;;12.96;82.61;98878.16;102657;1294;600223;-22
2023/06/15 03:03:43;;;;;;;5.50;2.10;;;;;;;13.11;82.68;98876.58;108637;1266;60466;-22
2023/06/15 03:06:11;;;;;;;3.10;2.00;;;;;;;14.01;81.29;98878.27;108675;1264;58760;-23
2023/06/15 03:08:41;;;;;;;4.70;2.80;;;;;;;14.92;77.73;98875.39;108613;1263;72321;-23
2023/06/15 03:11:34;;;;;;;4.20;3.40;;;;;;;15.35;75.77;98874.80;108580;1263;74300;-23
2023/06/15 03:14:02;;;;;;;4.50;3.20;;;;;;;15.51;75.34;98873.68;106765;1263;2509625;-23
2023/06/15 03:16:39;;;;;;;5.00;3.50;;;;;;;15.61;74.92;98871.80;108750;1263;59163;-24
2023/06/15 03:19:07;;;;;;;3.90;3.50;;;;;;;15.69;75.33;98875.18;108793;1263;60081;-23
2023/06/15 03:21:34;;;;;;;3.70;3.20;;;;;;;15.76;75.02;98874.77;108787;1262;72291;-23
2023/06/15 03:24:03;;;;;;;3.20;2.10;;;;;;;15.87;74.51;98876.79;108794;1263;74315;-23
2023/06/15 03:26:33;;;;;;;4.40;2.30;;;;;;;16.60;73.54;98870.85;108653;1263;72674;-23
2023/06/15 03:29:00;;;;;;;3.80;3.30;;;;;;;17.45;71.09;98863.29;108753;1263;60566;-23
2023/06/15 03:31:33;;;;;;;7.00;5.20;;;;;;;17.92;68.66;98860.09;108725;1263;60011;-23
2023/06/15 03:34:01;;;;;;;7.10;3.70;;;;;;;18.04;67.19;98860.22;108598;1262;73167;-23
2023/06/15 03:36:29;;;;;;;5.20;3.60;;;;;;;18.08;67.37;98854.94;108724;1262;73217;-23
2023/06/15 03:38:57;;;;;;;6.90;3.80;;;;;;;18.19;68.08;98855.64;108753;1261;72687;-23
2023/06/15 03:41:29;;;;;;;5.10;3.70;;;;;;;18.32;68.53;98859.91;108763;1264;60143;-23
2023/06/15 03:43:57;;;;;;;6.40;4.10;;;;;;;18.38;68.25;98855.25;108787;1261;60060;-23
2023/06/15 03:46:25;;;;;;;4.40;3.80;;;;;;;18.39;68.31;98859.91;108792;1263;71802;-23
2023/06/15 03:48:53;;;;;;;4.60;4.20;;;;;;;18.50;68.28;98859.61;108757;1261;74351;-23
2023/06/15 03:51:21;;;;;;;8.70;3.50;;;;;;;18.66;67.85;98860.65;108784;1264;71389;-23
2023/06/15 03:53:48;;;;;;;6.70;3.80;;;;;;;18.82;67.90;98865.67;108642;1264;58866;-23
2023/06/15 03:56:16;;;;;;;3.30;2.30;;;;;;;18.99;67.52;98866.51;108624;1267;60114;-23
2023/06/15 03:58:43;;;;;;;5.00;2.80;;;;;;;19.76;66.34;98871.11;108709;1264;72846;-24
2023/06/15 04:01:15;;;;;;;4.50;2.90;;;;;;;20.67;64.29;98869.27;108618;1263;74350;-23
2023/06/15 04:03:42;;;;;;;5.10;2.90;;;;;;;21.04;62.43;98867.80;108607;1264;72739;-23
2023/06/15 04:06:11;;;;;;;5.80;3.00;;;;;;;21.13;61.75;98863.48;108634;1264;60095;-23
2023/06/15 04:08:39;;;;;;;4.70;3.30;;;;;;;21.14;61.75;98863.33;108722;1264;58729;-23
2023/06/15 04:11:07;;;;;;;9.10;3.40;;;;;;;21.03;61.65;98865.19;108632;1264;73088;-23
2023/06/15 04:13:35;;;;;;;6.10;3.30;;;;;;;20.82;61.12;98861.32;108686;1264;73026;-23
2023/06/15 04:16:03;;;;;;;5.10;3.30;;;;;;;20.77;61.94;98863.36;108606;1263;71496;-23
2023/06/15 04:18:31;;;;;;;6.90;3.20;;;;;;;20.71;60.94;98862.82;108640;1263;58905;-23
2023/06/15 04:20:59;;;;;;;4.80;3.50;;;;;;;20.76;61.11;98861.27;108622;1264;59066;-23
2023/06/15 04:23:27;;;;;;;10.70;4.90;;;;;;;20.81;60.80;98863.52;108686;1263;73040;-23
2023/06/15 04:25:58;;;;;;;6.60;3.50;;;;;;;20.85;61.29;98864.06;108609;1264;73746;-23
2023/06/15 04:28:26;;;;;;;6.40;3.50;;;;;;;20.95;61.23;98864.38;108622;1264;72775;-23
2023/06/15 04:31:06;;;;;;;4.70;3.20;;;;;;;21.08;61.07;98866.77;108462;1267;58925;-23
2023/06/15 04:33:36;;;;;;;4.80;3.20;;;;;;;21.14;61.46;98861.42;108705;1264;58798;-23
2023/06/15 04:36:04;;;;;;;5.40;3.40;;;;;;;21.24;60.68;98859.43;108703;1264;71880;-23
2023/06/15 04:38:32;;;;;;;4.60;3.80;;;;;;;21.43;60.92;98865.99;108677;1264;72742;-23
2023/06/15 04:41:00;;;;;;;4.30;3.20;;;;;;;21.39;60.22;98870.15;108631;1264;70374;-23
2023/06/15 04:43:28;;;;;;;6.70;3.00;;;;;;;21.19;60.94;98871.36;108582;1266;58847;-23
2023/06/15 04:45:56;;;;;;;4.30;3.00;;;;;;;20.95;61.23;98876.98;108656;1264;60012;-23
2023/06/15 04:48:27;;;;;;;3.40;2.90;;;;;;;20.86;61.41;98876.76;108608;1264;71839;-23
2023/06/15 04:50:56;;;;;;;4.80;3.20;;;;;;;20.86;61.64;98878.31;108626;1264;73230;-23
2023/06/15 04:53:24;;;;;;;7.90;3.10;;;;;;;21.06;61.11;98877.63;108629;1264;72668;-23
2023/06/15 04:55:52;;;;;;;5.40;3.20;;;;;;;21.01;60.53;98875.40;108603;1264;59295;-23
2023/06/15 04:58:19;;;;;;;6.40;3.40;;;;;;;20.75;60.71;98875.80;108611;1263;58744;-23
2023/06/15 05:00:48;;;;;;;9.00;3.00;;;;;;;20.76;61.78;98872.02;108615;1263;72988;-23
2023/06/15 05:03:17;;;;;;;17.00;3.50;;;;;;;21.30;60.68;98866.25;108631;1263;74345;-23
2023/06/15 05:05:45;;;;;;;5.60;3.50;;;;;;;21.49;59.78;98870.50;108473;1263;72697;-23
2023/06/15 05:08:13;;;;;;;6.10;2.70;;;;;;;21.51;59.63;98872.02;108613;1264;58867;-23
2023/06/15 05:10:41;;;;;;;4.10;3.00;;;;;;;21.68;58.22;98875.41;108609;1263;60475;-23
2023/06/15 05:13:15;;;;;;;5.00;2.60;;;;;;;21.66;57.92;98881.69;108596;1263;71776;-23
2023/06/15 05:15:42;;;;;;;3.50;2.70;;;;;;;21.49;57.21;98882.69;108634;1263;74334;-23
2023/06/15 05:18:12;;;;;;;9.50;2.80;;;;;;;21.42;57.57;98882.91;108583;1264;72671;-23
2023/06/15 05:20:39;;;;;;;12.90;3.70;;;;;;;21.35;57.95;98881.05;108584;1263;60129;-23
2023/06/15 05:23:07;;;;;;;10.50;4.70;;;;;;;21.07;58.92;98883.33;108632;1263;58838;-23
2023/06/15 05:25:36;;;;;;;4.80;3.50;;;;;;;20.75;58.82;98880.71;108628;1263;72303;-23
2023/06/15 05:28:04;;;;;;;7.00;2.80;;;;;;;20.87;60.04;98879.60;108601;1263;72114;-23
2023/06/15 05:30:33;;;;;;;6.00;2.80;;;;;;;21.36;59.48;98874.92;108593;1267;71418;-23
2023/06/15 05:33:01;;;;;;;6.50;2.80;;;;;;;21.50;58.92;98879.35;108569;1263;58813;-23
2023/06/15 05:35:28;;;;;;;8.00;2.90;;;;;;;21.60;58.04;98881.62;108617;1263;60006;-23
2023/06/15 05:37:56;;;;;;;4.30;2.90;;;;;;;21.75;58.22;98881.79;108619;1264;73224;-23
2023/06/15 05:40:23;;;;;;;33.30;4.30;;;;;;;21.84;58.06;98878.44;108583;1263;74328;-23
2023/06/15 05:42:51;;;;;;;8.20;3.10;;;;;;;21.99;57.30;98882.21;108611;1266;72676;-22
2023/06/15 05:45:19;;;;;;;7.20;3.50;;;;;;;22.19;57.61;98884.36;108602;1263;60061;-23
2023/06/15 05:47:47;;;;;;;9.10;5.30;;;;;;;21.99;57.35;98883.74;108590;1263;58752;-23
2023/06/15 05:50:15;;;;;;;6.80;2.90;;;;;;;22.53;57.25;98884.62;108972;1257;73082;-23
2023/06/15 05:52:42;;;;;;;3.60;2.50;;;;;;;22.83;55.64;98883.65;109031;1257;73633;-23
2023/06/15 05:55:10;;;;;;;4.00;2.90;;;;;;;22.88;56.08;98886.92;108942;1264;71641;-23
2023/06/15 05:57:38;;;;;;;4.90;2.70;;;;;;;23.05;55.86;98890.23;108951;1257;60066;-23
2023/06/15 06:00:06;;;;;;;4.50;2.90;;;;;;;23.27;55.56;98889.02;109037;1257;58899;-23
2023/06/15 06:02:43;;;;;;;4.80;2.70;;;;;;;23.34;55.12;98888.46;108990;1262;73096;-23
2023/06/15 06:05:19;;;;;;;4.70;2.70;;;;;;;23.36;55.05;98889.88;108943;1259;74286;-26
2023/06/15 06:07:47;;;;;;;4.00;3.10;;;;;;;23.34;55.05;98896.96;108990;1259;72693;-23
2023/06/15 06:10:18;;;;;;;3.20;2.60;;;;;;;23.52;54.98;98891.05;109001;1258;60127;-23
2023/06/15 06:12:46;;;;;;;3.60;2.90;;;;;;;23.57;54.16;98892.00;108948;1259;60032;-23
2023/06/15 06:15:15;;;;;;;3.90;2.40;;;;;;;23.44;54.68;98895.70;108978;1260;71810;-23
2023/06/15 06:17:45;;;;;;;6.80;2.80;;;;;;;23.37;54.65;98896.16;108947;1259;74433;-23
2023/06/15 06:20:35;;;;;;;7.80;2.70;;;;;;;23.48;54.75;98890.74;108954;1259;72705;-23
2023/06/15 06:23:04;;;;;;;8.20;3.00;;;;;;;23.58;55.13;98892.68;108981;1258;58856;-23
2023/06/15 06:25:31;;;;;;;3.80;2.70;;;;;;;23.37;54.29;98891.91;108979;1259;60027;-23
2023/06/15 06:28:00;;;;;;;6.80;3.00;;;;;;;23.55;54.60;98892.25;108952;1259;73036;-23
2023/06/15 06:30:27;;;;;;;3.70;2.90;;;;;;;23.42;54.46;98892.56;108868;1258;74343;-24
2023/06/15 06:32:55;;;;;;;5.50;2.90;;;;;;;23.72;54.62;98893.95;108921;1259;71460;-23
2023/06/15 06:35:25;;;;;;;6.10;2.50;;;;;;;23.69;53.71;98895.43;108990;1259;59460;-23
2023/06/15 06:37:53;;;;;;;5.70;2.80;;;;;;;23.61;54.50;98900.85;108996;1259;59120;-23
2023/06/15 06:40:20;;;;;;;8.00;2.70;;;;;;;23.66;53.69;98904.70;109017;1259;73202;-23
2023/06/15 06:42:48;;;;;;;4.00;2.80;;;;;;;23.74;53.82;98905.55;109004;1259;73208;-23
2023/06/15 06:45:16;;;;;;;10.40;2.60;;;;;;;23.85;52.76;98900.64;108974;1259;72678;-23
2023/06/15 06:47:44;;;;;;;3.80;2.70;;;;;;;23.57;54.79;98904.71;109020;1259;60089;-23
2023/06/15 06:50:11;;;;;;;3.90;2.80;;;;;;;23.69;54.00;98902.77;108953;1259;58821;-23
2023/06/15 06:52:39;;;;;;;5.30;2.30;;;;;;;23.81;53.71;98903.73;108929;1259;72083;-24
2023/06/15 06:55:07;;;;;;;5.20;2.50;;;;;;;23.82;54.11;98900.75;108960;1259;74486;-24
2023/06/15 06:57:35;;;;;;;5.50;2.70;;;;;;;23.71;54.27;98897.27;108974;1259;72641;-24
2023/06/15 07:00:04;;;;;;;7.50;2.80;;;;;;;23.63;54.90;98896.42;108894;1259;60498;-24
2023/06/15 07:02:32;;;;;;;5.60;3.00;;;;;;;23.44;54.69;98899.02;108823;1259;59076;-23
2023/06/15 07:05:00;;;;;;;5.10;3.50;;;;;;;23.33;55.46;98901.48;108965;1259;73115;-24
2023/06/15 07:07:28;;;;;;;11.80;6.20;;;;;;;23.19;55.80;98896.64;108924;1259;74349;-23
2023/06/15 07:09:55;;;;;;;7.30;3.50;;;;;;;22.98;55.08;98896.48;108961;1259;71381;-24
2023/06/15 07:12:23;;;;;;;6.60;3.20;;;;;;;23.26;55.04;98892.48;108969;1259;59128;-23
2023/06/15 07:14:50;;;;;;;6.10;3.00;;;;;;;23.55;54.79;98895.35;109009;1259;58886;-24
2023/06/15 07:17:18;;;;;;;3.40;2.50;;;;;;;23.76;53.82;98891.63;108979;1259;73844;-23
2023/06/15 07:19:46;;;;;;;9.30;2.80;;;;;;;23.49;54.87;98896.08;108981;1259;74309;-23
2023/06/15 07:22:13;;;;;;;9.40;3.00;;;;;;;23.28;55.27;98890.27;108907;1259;71925;-24
2023/06/15 07:24:41;;;;;;;6.90;2.60;;;;;;;23.63;53.73;98886.20;108901;1259;59122;-24
2023/06/15 07:27:09;;;;;;;3.20;2.60;;;;;;;24.07;53.86;98887.86;109010;1259;60061;-24
2023/06/15 07:29:36;;;;;;;3.50;2.80;;;;;;;24.19;53.17;98885.20;108930;1260;72582;-24
2023/06/15 07:32:04;;;;;;;7.00;2.60;;;;;;;24.12;53.24;98886.99;108945;1259;74320;-24
2023/06/15 07:34:32;;;;;;;5.50;2.40;;;;;;;24.47;53.55;98887.04;108981;1259;72672;-23
2023/06/15 07:36:59;;;;;;;5.40;2.50;;;;;;;24.49;53.54;98884.20;108960;1259;58819;-27
2023/06/15 07:39:27;;;;;;;6.90;4.20;;;;;;;24.62;52.37;98881.95;109034;1258;58817;-24
2023/06/15 07:41:55;;;;;;;6.50;4.40;;;;;;;24.11;52.61;98878.18;109005;1259;73938;-24
2023/06/15 07:44:22;;;;;;;5.40;2.80;;;;;;;24.47;52.92;98881.48;108982;1259;74279;-24
2023/06/15 07:46:50;;;;;;;4.80;2.70;;;;;;;24.75;52.63;98872.77;108915;1259;72990;-24
2023/06/15 07:49:17;;;;;;;3.30;2.20;;;;;;;24.77;52.77;98874.87;108988;1259;58878;-24
2023/06/15 07:51:59;;;;;;;7.00;3.10;;;;;;;24.51;51.66;98875.58;109014;1259;60058;-24
2023/06/15 07:54:37;;;;;;;6.10;2.80;;;;;;;24.48;52.56;98878.04;108998;1259;74005;-24
2023/06/15 07:57:04;;;;;;;5.70;2.30;;;;;;;24.66;52.94;98878.64;109029;1259;73084;-24
2023/06/15 07:59:32;;;;;;;5.00;2.30;;;;;;;24.89;51.85;98872.21;108982;1261;72409;-24
2023/06/15 08:02:02;;;;;;;4.40;2.50;;;;;;;24.93;51.78;98876.09;108980;1259;59243;-24
2023/06/15 08:04:30;;;;;;;4.80;2.30;;;;;;;24.97;51.66;98875.42;108980;1259;60073;-24
2023/06/15 08:06:57;;;;;;;6.30;2.60;;;;;;;24.75;50.18;98875.59;109003;1259;72534;-24
2023/06/15 08:09:25;;;;;;;7.00;2.20;;;;;;;24.66;50.37;98872.45;108965;1259;73200;-24
2023/06/15 08:11:53;;;;;;;5.60;2.40;;;;;;;24.80;51.91;98874.19;108991;1259;71450;-24
2023/06/15 08:14:20;;;;;;;6.30;2.90;;;;;;;24.90;51.60;98873.42;109018;1258;58813;-24
2023/06/15 08:16:48;;;;;;;7.50;2.70;;;;;;;25.00;51.51;98873.46;108985;1259;60030;-24
2023/06/15 08:19:16;;;;;;;5.40;2.30;;;;;;;25.21;49.79;98871.85;108992;1258;73882;-24
2023/06/15 08:21:43;;;;;;;5.90;2.60;;;;;;;25.13;50.35;98874.99;108979;1259;74474;-24
2023/06/15 08:24:12;;;;;;;2.60;2.40;;;;;;;25.11;52.32;98877.81;108886;1259;71452;-24
2023/06/15 08:26:40;;;;;;;5.20;2.30;;;;;;;25.12;50.69;98873.29;108869;1259;60056;-24
2023/06/15 08:29:07;;;;;;;3.80;2.40;;;;;;;25.29;49.78;98875.80;109016;1259;60023;-24
2023/06/15 08:31:51;;;;;;;5.20;2.20;;;;;;;25.51;49.81;98872.65;109005;1259;73952;-24
2023/06/15 08:34:18;;;;;;;7.50;2.40;;;;;;;25.73;48.47;98871.98;108923;1259;74320;-24
2023/06/15 08:36:46;;;;;;;5.20;2.40;;;;;;;25.72;48.80;98870.73;108994;1259;71425;-24
2023/06/15 08:39:13;;;;;;;11.00;2.90;;;;;;;25.63;49.34;98871.94;108947;1259;59292;-24
2023/06/15 08:41:41;;;;;;;6.10;2.50;;;;;;;25.58;49.19;98869.36;109022;1259;58726;-24
2023/06/15 08:44:09;;;;;;;8.00;3.10;;;;;;;25.42;49.94;98872.52;108922;1259;74333;-24
2023/06/15 08:46:36;;;;;;;5.20;2.70;;;;;;;24.91;48.79;98873.52;108897;1259;74335;-24
2023/06/15 08:49:04;;;;;;;5.10;3.40;;;;;;;24.96;49.48;98870.27;108980;1259;72669;-24
2023/06/15 08:51:31;;;;;;;8.70;2.90;;;;;;;24.98;49.37;98872.72;108995;1259;60093;-24
2023/06/15 08:53:59;;;;;;;6.50;2.50;;;;;;;24.88;49.45;98871.86;108869;1260;58692;-24
2023/06/15 08:56:26;;;;;;;13.60;3.80;;;;;;;25.02;49.09;98871.48;108876;1260;73807;-24
2023/06/15 08:58:54;;;;;;;11.50;3.20;;;;;;;25.51;49.11;98868.54;108963;1260;74320;-24
2023/06/15 09:01:22;;;;;;;3.80;2.50;;;;;;;25.97;48.06;98869.98;108845;1260;72707;-24
2023/06/15 09:03:52;;;;;;;3.40;2.10;;;;;;;26.02;46.80;98868.45;108791;1262;58890;-24
2023/06/15 09:06:20;;;;;;;5.30;2.30;;;;;;;25.97;46.73;98869.45;108744;1262;60040;-24
2023/06/15 09:08:48;;;;;;;6.40;2.90;;;;;;;26.28;46.03;98864.59;108837;1262;72889;-24
2023/06/15 09:11:16;;;;;;;10.70;5.60;;;;;;;26.26;47.83;98865.23;108888;1261;74170;-24
2023/06/15 09:13:45;;;;;;;6.50;2.90;;;;;;;26.11;46.90;98867.38;108743;1262;71447;-22
2023/06/15 09:16:13;;;;;;;6.70;2.60;;;;;;;26.30;47.35;98863.66;108795;1266;58783;-22
2023/06/15 09:18:49;;;;;;;4.70;2.40;;;;;;;26.20;46.93;98859.88;108904;1262;60296;-24
2023/06/15 09:21:17;;;;;;;9.20;2.50;;;;;;;26.43;46.74;98859.10;108755;1264;76026;-24
2023/06/15 09:23:46;;;;;;;4.70;2.30;;;;;;;26.80;45.55;98855.39;108850;1262;75691;-24
2023/06/15 09:26:26;;;;;;;7.10;2.20;;;;;;;27.07;45.06;98857.13;108885;1262;74189;-23
2023/06/15 09:28:55;;;;;;;5.90;2.00;;;;;;;27.43;43.29;98859.93;108715;1261;60957;-24
2023/06/15 09:31:33;;;;;;;5.20;2.30;;;;;;;27.46;43.29;98859.45;108747;1264;62115;-24
2023/06/15 09:34:11;;;;;;;3.90;2.50;;;;;;;27.29;44.00;98858.18;108817;1262;73856;-24
2023/06/15 09:36:44;;;;;;;3.50;2.10;;;;;;;26.87;45.75;98854.29;108761;1262;73049;-24
2023/06/15 09:39:13;;;;;;;2.20;1.90;;;;;;;26.73;46.34;98851.10;108818;1262;72684;-23
2023/06/15 09:42:09;;;;;;;4.20;2.10;;;;;;;26.94;45.70;98851.33;108875;1261;59333;-23
2023/06/15 09:44:40;;;;;;;4.60;2.00;;;;;;;27.03;43.86;98856.11;108747;1262;60069;-24
2023/06/15 09:47:15;;;;;;;6.00;2.30;;;;;;;27.23;43.08;98859.61;108840;1262;73851;-24
2023/06/15 09:49:44;;;;;;;4.40;2.30;;;;;;;27.46;43.20;98856.95;108775;1262;73373;-24
2023/06/15 09:52:12;;;;;;;4.10;2.10;;;;;;;27.60;42.87;98852.74;108875;1262;71552;-24
2023/06/15 09:54:41;;;;;;;2.20;1.70;;;;;;;27.83;41.69;98850.83;108795;1264;60134;-24
2023/06/15 09:57:11;;;;;;;4.50;2.00;;;;;;;28.18;41.44;98852.56;108757;1262;58746;-24
2023/06/15 09:59:40;;;;;;;5.00;2.10;;;;;;;28.59;42.42;98851.69;108736;1262;72575;-24
2023/06/15 10:02:11;;;;;;;4.70;2.30;;;;;;;28.50;41.19;98852.75;108815;1261;74320;-24
2023/06/15 10:04:41;;;;;;;4.40;2.30;;;;;;;27.91;42.14;98852.70;108784;1263;71491;-24
2023/06/15 10:07:16;;;;;;;5.20;1.90;;;;;;;27.68;42.39;98854.70;108802;1261;59015;-24
2023/06/15 10:09:50;;;;;;;3.70;2.10;;;;;;;27.34;41.99;98856.73;108905;1261;60196;-24
2023/06/15 10:12:23;;;;;;;3.70;2.20;;;;;;;27.16;42.49;98853.08;108875;1260;73616;-24
2023/06/15 10:15:12;;;;;;;6.00;2.00;;;;;;;27.16;43.11;98852.17;108889;1261;74352;-24
2023/06/15 10:17:43;;;;;;;3.60;1.70;;;;;;;26.81;42.81;98846.84;108773;1263;71381;-24
2023/06/15 10:20:17;;;;;;;4.90;1.80;;;;;;;26.65;43.96;98844.12;108864;1260;58832;-24
2023/06/15 10:22:53;;;;;;;4.40;2.10;;;;;;;26.70;44.06;98842.12;108870;1260;60036;-24
2023/06/15 10:25:24;;;;;;;13.90;6.50;;;;;;;27.09;42.51;98840.86;108841;1261;73921;-24
2023/06/15 10:27:55;;;;;;;6.10;2.40;;;;;;;26.88;42.52;98842.14;108803;1260;74508;-24
2023/06/15 10:30:44;;;;;;;4.80;2.20;;;;;;;26.37;42.22;98839.16;108877;1261;72677;-24
2023/06/15 10:33:39;;;;;;;2.90;1.90;;;;;;;27.17;42.49;98836.41;108860;1260;60050;-23
2023/06/15 10:36:19;;;;;;;3.60;1.50;;;;;;;27.81;42.45;98829.91;109007;1260;59263;-24
2023/06/15 10:39:13;;;;;;;3.60;2.20;;;;;;;28.07;40.71;98828.91;108887;1261;73919;-24
2023/06/15 10:41:45;;;;;;;4.60;1.90;;;;;;;28.39;40.17;98835.20;108837;1261;74353;-24
2023/06/15 10:44:16;;;;;;;15.50;2.70;;;;;;;28.67;39.79;98836.57;108861;1263;72730;-24
2023/06/15 10:46:46;;;;;;;3.20;1.90;;;;;;;28.95;38.75;98833.11;108868;1260;60098;-24
2023/06/15 10:49:17;;;;;;;10.10;1.90;;;;;;;29.17;38.01;98825.77;108782;1260;60032;-24
2023/06/15 10:51:51;;;;;;;4.20;1.60;;;;;;;29.58;38.64;98821.01;108852;1260;72633;-24
2023/06/15 11:01:52;;;;;;;7.50;3.70;;;;;;;28.02;39.32;98823.65;102690;1292;600076;-23
2023/06/15 11:04:30;;;;;;;6.00;2.90;;;;;;;28.75;40.02;98827.30;104802;1267;61190;-23
2023/06/15 11:06:58;;;;;;;6.50;2.50;;;;;;;29.48;39.68;98821.90;104820;1264;61752;-23
2023/06/15 11:09:31;;;;;;;4.20;2.90;;;;;;;29.03;37.53;98817.55;104767;1265;70947;-24
2023/06/15 11:12:00;;;;;;;5.10;2.20;;;;;;;27.51;39.90;98816.12;104751;1264;73128;-23
2023/06/15 11:14:27;;;;;;;7.00;2.20;;;;;;;27.96;40.94;98816.98;102901;1266;2684433;-24
2023/06/15 11:17:05;;;;;;;3.20;1.80;;;;;;;27.79;40.88;98816.20;104834;1270;61230;-23
2023/06/15 11:19:52;;;;;;;3.60;1.80;;;;;;;27.47;40.12;98810.96;104887;1268;61113;-23
2023/06/15 11:22:25;;;;;;;4.10;1.90;;;;;;;27.37;41.36;98809.77;104861;1263;72276;-23
2023/06/15 11:24:54;;;;;;;3.20;1.90;;;;;;;26.85;40.46;98810.44;105134;1263;74314;-23
2023/06/15 11:34:21;;;;;;;4.10;2.10;;;;;;;27.81;40.06;98815.54;102699;1290;600114;-23
2023/06/15 11:36:49;;;;;;;4.00;2.00;;;;;;;28.00;41.20;98814.20;104828;1266;61252;-22
2023/06/15 11:39:23;;;;;;;4.20;2.00;;;;;;;27.73;41.37;98816.43;105180;1267;61223;-22
2023/06/15 11:41:51;;;;;;;3.30;2.40;;;;;;;27.38;40.60;98820.48;104850;1262;72305;-23
2023/06/15 11:44:22;;;;;;;2.70;1.50;;;;;;;27.11;40.87;98817.71;105491;1256;74335;-22
2023/06/15 11:46:56;;;;;;;3.60;1.70;;;;;;;27.03;41.67;98820.62;103671;1260;2638614;-23
2023/06/15 11:49:24;;;;;;;2.80;1.80;;;;;;;26.83;42.23;98815.16;105644;1256;61039;-23
2023/06/15 11:51:53;;;;;;;3.80;2.10;;;;;;;26.58;42.29;98811.93;105610;1255;61055;-22
2023/06/15 11:54:28;;;;;;;2.10;1.60;;;;;;;26.33;42.48;98812.91;105576;1256;71413;-24
2023/06/15 11:57:16;;;;;;;2.20;1.60;;;;;;;26.69;43.27;98812.73;105538;1256;74299;-23
2023/06/15 11:59:43;;;;;;;5.30;2.00;;;;;;;27.27;41.65;98811.05;105621;1256;71111;-23
2023/06/15 12:02:12;;;;;;;2.60;1.70;;;;;;;27.62;42.02;98808.51;105605;1262;61168;-23
2023/06/15 12:04:40;;;;;;;2.80;1.60;;;;;;;27.60;39.83;98804.52;105632;1262;61323;-23
2023/06/15 12:07:08;;;;;;;22.90;3.50;;;;;;;27.98;41.16;98805.35;105577;1257;71247;-23
2023/06/15 12:09:44;;;;;;;4.20;1.60;;;;;;;28.44;40.41;98804.80;105263;1256;73311;-23
2023/06/15 12:12:31;;;;;;;7.20;2.00;;;;;;;28.73;40.18;98799.20;105376;1260;73210;-23
2023/06/15 12:15:00;;;;;;;2.50;1.80;;;;;;;29.05;38.15;98796.23;105185;1264;61511;-23
2023/06/15 12:24:59;;;;;;;4.30;1.90;;;;;;;29.26;38.48;98790.95;102710;1292;599520;-22
2023/06/15 12:27:29;;;;;;;6.70;1.90;;;;;;;29.03;38.42;98791.98;104933;1267;61193;-22
2023/06/15 12:30:13;;;;;;;3.30;1.60;;;;;;;28.85;38.09;98787.57;104911;1264;61196;-29
2023/06/15 12:32:44;;;;;;;2.10;1.50;;;;;;;28.85;38.16;98782.16;104789;1266;72213;-22
2023/06/15 12:35:34;;;;;;;6.00;2.10;;;;;;;28.45;37.95;98783.23;104645;1272;74329;-22
2023/06/15 12:38:05;;;;;;;3.10;1.80;;;;;;;28.21;39.11;98777.21;102780;1267;2632407;-22
2023/06/15 12:48:13;;;;;;;5.10;1.90;;;;;;;28.64;39.23;98773.11;102659;1290;600323;-22
2023/06/15 12:50:40;;;;;;;6.50;3.60;;;;;;;28.99;37.17;98766.20;104872;1269;61178;-22
2023/06/15 12:53:09;;;;;;;2.60;1.70;;;;;;;28.88;37.87;98766.41;104814;1267;61277;-22
2023/06/15 12:55:36;;;;;;;4.60;2.30;;;;;;;28.56;38.17;98765.84;104830;1270;72993;-22
2023/06/15 12:58:04;;;;;;;2.60;1.80;;;;;;;28.36;38.75;98765.08;104829;1271;75100;-22